Time;durP1;ratioP1;P1;durP2;ratioP2;P2;SDS_P1;SDS_P2;PMS_P1;PMS_P2;Temp;Humidity;BMP_temperature;BMP_pressure;BME280_temperature;BME280_humidity;BME280_pressure;Samples;Min_cycle;Max_cycle;Signal;HPM_P1;HPM_P2
2021/12/24 00:00:51;;;;;;;41.92;17.77;;;3.30;99.90;;;;;;5046624;28;20037;-76
2021/12/24 00:03:17;;;;;;;49.05;19.20;;;3.30;99.90;;;;;;5046545;28;20037;-73
2021/12/24 00:05:44;;;;;;;53.22;20.58;;;3.40;99.90;;;;;;5048812;28;20953;-75
2021/12/24 00:08:10;;;;;;;44.90;18.20;;;3.30;99.90;;;;;;5041637;28;20075;-73
2021/12/24 00:10:37;;;;;;;47.08;18.80;;;3.40;99.90;;;;;;5047435;28;20518;-73
2021/12/24 00:13:08;;;;;;;40.83;16.70;;;3.40;99.90;;;;;;5042709;28;20096;-74
2021/12/24 00:37:10;;;;;;;35.00;16.35;;;3.50;99.90;;;;;;5045879;28;20025;-74
2021/12/24 00:39:43;;;;;;;36.75;16.38;;;3.60;99.90;;;;;;5044908;28;20021;-75
2021/12/24 00:42:09;;;;;;;40.00;16.75;;;3.60;99.90;;;;;;5047226;28;20025;-75
2021/12/24 00:44:35;;;;;;;38.38;15.60;;;3.60;99.90;;;;;;5047209;28;20032;-74
2021/12/24 00:47:01;;;;;;;44.38;18.50;;;3.60;99.90;;;;;;5050479;28;20074;-74
2021/12/24 00:49:27;;;;;;;38.30;16.48;;;3.70;99.90;;;;;;5043739;28;20429;-75
2021/12/24 00:52:07;;;;;;;43.17;17.15;;;3.80;99.90;;;;;;5046749;28;20029;-74
2021/12/24 00:57:18;;;;;;;32.95;15.05;;;3.80;99.90;;;;;;5042571;28;20156;-75
2021/12/24 00:59:44;;;;;;;39.97;17.10;;;3.80;99.90;;;;;;5041297;28;20116;-75
2021/12/24 01:02:10;;;;;;;39.42;16.40;;;3.90;99.90;;;;;;5043700;28;20025;-75
2021/12/24 01:04:36;;;;;;;38.92;17.60;;;3.90;99.90;;;;;;5039209;28;20029;-73
2021/12/24 01:07:02;;;;;;;41.67;17.83;;;4.00;99.90;;;;;;5046533;28;20029;-74
2021/12/24 01:09:28;;;;;;;41.35;18.52;;;4.00;99.90;;;;;;5049397;28;20089;-73
2021/12/24 01:11:53;;;;;;;33.15;15.30;;;4.00;99.90;;;;;;5044062;28;20099;-74
2021/12/24 01:14:21;;;;;;;42.50;16.98;;;3.90;99.90;;;;;;5040237;28;20075;-73
2021/12/24 01:17:01;;;;;;;42.60;18.33;;;3.90;99.90;;;;;;5042986;28;20048;-73
2021/12/24 01:19:27;;;;;;;36.17;16.35;;;3.90;99.90;;;;;;5047513;28;20032;-73
2021/12/24 01:24:48;;;;;;;46.25;18.30;;;3.90;99.90;;;;;;5048701;28;20556;-73
2021/12/24 01:27:34;;;;;;;44.53;18.38;;;4.00;99.90;;;;;;5048323;28;20029;-73
2021/12/24 01:37:49;;;;;;;44.42;17.90;;;4.00;99.90;;;;;;5044771;28;20131;-73
2021/12/24 01:38:23;;;;;;;31.88;15.07;;;4.00;99.90;;;;;;5046527;28;20044;-76
2021/12/24 01:41:04;;;;;;;34.22;14.93;;;4.10;99.90;;;;;;5045385;28;20060;-75
2021/12/24 01:43:33;;;;;;;35.60;16.40;;;4.10;99.90;;;;;;5035740;28;20387;-75
2021/12/24 01:46:01;;;;;;;37.00;16.10;;;4.10;99.90;;;;;;5036694;28;20036;-75
2021/12/24 01:48:29;;;;;;;35.70;15.13;;;4.20;99.90;;;;;;5043011;28;20029;-75
2021/12/24 01:50:55;;;;;;;40.97;17.20;;;4.20;99.90;;;;;;5044206;28;20025;-75
2021/12/24 01:53:23;;;;;;;41.20;16.52;;;4.20;99.90;;;;;;5046000;28;20036;-74
2021/12/24 01:55:52;;;;;;;43.25;17.58;;;4.20;99.90;;;;;;5047444;28;20516;-75
2021/12/24 01:58:23;;;;;;;40.60;17.00;;;4.20;99.90;;;;;;5052639;28;20316;-74
2021/12/24 02:00:50;;;;;;;;;;;4.30;99.90;;;;;;5051009;28;20064;-75
2021/12/24 02:03:16;;;;;;;36.25;14.98;;;4.30;99.90;;;;;;5047998;28;19916;-74
2021/12/24 02:05:43;;;;;;;34.33;16.10;;;4.30;99.90;;;;;;5049903;28;20033;-75
2021/12/24 02:08:11;;;;;;;29.77;15.00;;;4.30;99.90;;;;;;5047003;28;20025;-74
2021/12/24 02:10:38;;;;;;;37.35;16.83;;;4.30;99.90;;;;;;5053658;28;20108;-74
2021/12/24 02:13:03;;;;;;;35.42;15.60;;;4.40;99.90;;;;;;5044073;28;20647;-75
2021/12/24 02:28:49;;;;;;;31.10;14.80;;;4.40;99.90;;;;;;5048617;28;20445;-75
2021/12/24 02:31:19;;;;;;;31.83;14.07;;;4.40;99.90;;;;;;5050688;28;20025;-74
2021/12/24 02:33:45;;;;;;;24.13;12.10;;;4.40;99.90;;;;;;5046816;28;20028;-75
2021/12/24 02:36:11;;;;;;;31.02;13.52;;;4.40;99.90;;;;;;5047897;28;20337;-75
2021/12/24 02:38:38;;;;;;;26.08;13.43;;;4.40;99.90;;;;;;5049767;28;20040;-75
2021/12/24 02:41:05;;;;;;;26.88;13.25;;;4.40;99.90;;;;;;5043555;28;20036;-75
2021/12/24 02:43:32;;;;;;;30.67;13.35;;;4.50;99.90;;;;;;5043922;28;20017;-75
2021/12/24 02:46:06;;;;;;;28.42;13.90;;;4.50;99.90;;;;;;5041322;28;20615;-75
2021/12/24 02:53:58;;;;;;;21.80;12.15;;;4.50;99.90;;;;;;5043757;28;20079;-73
2021/12/24 02:56:30;;;;;;;19.33;10.48;;;4.50;99.90;;;;;;5044822;28;20025;-75
2021/12/24 02:58:58;;;;;;;24.23;12.43;;;4.50;99.90;;;;;;5051640;28;20033;-75
2021/12/24 03:01:31;;;;;;;21.42;11.90;;;4.50;99.90;;;;;;5044994;28;20451;-74
2021/12/24 03:03:57;;;;;;;18.40;9.98;;;4.50;99.90;;;;;;5062386;28;20025;-75
2021/12/24 03:06:28;;;;;;;18.30;10.32;;;4.50;99.90;;;;;;5041162;28;20026;-74
2021/12/24 03:08:54;;;;;;;;;;;4.50;99.90;;;;;;5041297;28;20048;-75
2021/12/24 03:11:20;;;;;;;28.83;12.32;;;4.50;99.90;;;;;;5049114;28;20365;-75
2021/12/24 03:13:46;;;;;;;22.60;12.32;;;4.50;99.90;;;;;;5043546;28;20036;-75
2021/12/24 03:16:12;;;;;;;24.00;12.40;;;4.60;99.90;;;;;;5043577;28;20060;-75
2021/12/24 03:18:40;;;;;;;26.00;12.27;;;4.60;99.90;;;;;;5049458;28;20079;-75
2021/12/24 03:23:40;;;;;;;27.50;12.75;;;4.60;99.90;;;;;;5043176;28;20032;-75
2021/12/24 03:26:10;;;;;;;22.30;11.80;;;4.60;99.90;;;;;;5040615;28;20017;-75
2021/12/24 03:28:35;;;;;;;25.88;13.40;;;4.60;99.90;;;;;;5052126;28;20399;-75
2021/12/24 03:31:02;;;;;;;25.77;13.18;;;4.70;99.90;;;;;;5048558;28;20033;-75
2021/12/24 03:33:28;;;;;;;27.27;12.75;;;4.70;99.90;;;;;;5046778;28;20040;-75
2021/12/24 03:35:54;;;;;;;21.88;11.13;;;4.60;99.90;;;;;;5048408;28;20096;-75
2021/12/24 03:38:20;;;;;;;22.58;12.23;;;4.60;99.90;;;;;;5052553;28;20047;-75
2021/12/24 03:40:46;;;;;;;20.33;11.23;;;4.60;99.90;;;;;;5048322;28;20102;-75
2021/12/24 03:43:11;;;;;;;19.95;10.85;;;4.60;99.90;;;;;;5044550;28;20035;-74
2021/12/24 03:48:20;;;;;;;19.13;10.32;;;4.60;99.90;;;;;;5044762;28;20475;-75
2021/12/24 03:51:07;;;;;;;17.45;10.38;;;4.60;99.90;;;;;;5046129;28;20029;-73
2021/12/24 03:56:18;;;;;;;22.77;12.18;;;4.60;99.90;;;;;;5048797;28;20051;-74
2021/12/24 03:58:43;;;;;;;21.70;11.80;;;4.60;99.90;;;;;;5051256;28;20562;-74
2021/12/24 04:01:10;;;;;;;20.58;11.38;;;4.60;99.90;;;;;;5043768;28;20024;-73
2021/12/24 04:03:36;;;;;;;25.90;12.23;;;4.60;99.90;;;;;;5026995;28;20067;-74
2021/12/24 04:06:02;;;;;;;19.60;11.32;;;4.70;99.90;;;;;;5048118;28;20067;-74
2021/12/24 04:08:30;;;;;;;20.55;11.18;;;4.60;99.90;;;;;;5046430;28;20036;-73
2021/12/24 04:10:56;;;;;;;17.08;10.55;;;4.70;99.90;;;;;;5051622;28;20025;-73
2021/12/24 04:13:22;;;;;;;18.40;10.20;;;4.70;99.90;;;;;;5044490;28;20021;-74
2021/12/24 04:15:48;;;;;;;23.20;10.82;;;4.60;99.90;;;;;;5040815;28;20037;-74
2021/12/24 04:18:18;;;;;;;20.65;11.43;;;4.70;99.90;;;;;;5044768;28;20259;-74
2021/12/24 04:26:18;;;;;;;24.55;12.45;;;4.70;99.90;;;;;;5059035;28;20520;-90
2021/12/24 04:28:44;;;;;;;25.60;12.93;;;4.70;99.90;;;;;;5038722;28;20124;-92
2021/12/24 04:31:09;;;;;;;25.88;12.82;;;4.70;99.90;;;;;;5034918;28;20097;-91
2021/12/24 04:33:38;;;;;;;27.48;14.35;;;4.80;99.90;;;;;;5041081;28;20106;-93
2021/12/24 04:38:45;;;;;;;19.05;10.63;;;4.70;99.90;;;;;;5055409;28;20104;-92
2021/12/24 04:52:43;;;;;;;30.38;13.02;;;4.80;99.90;;;;;;5058441;28;20116;-92
2021/12/24 05:03:27;;;;;;;24.48;11.40;;;4.80;99.90;;;;;;5051716;28;20033;-93
2021/12/24 05:06:05;;;;;;;27.30;11.85;;;4.90;99.90;;;;;;5038514;28;20046;-92
2021/12/24 05:08:40;;;;;;;27.75;11.82;;;4.90;99.90;;;;;;5042798;28;20037;-91
2021/12/24 05:11:10;;;;;;;24.58;11.93;;;4.90;99.90;;;;;;5045667;28;20037;-91
2021/12/24 05:13:37;;;;;;;25.27;12.27;;;4.90;99.90;;;;;;5037258;28;20036;-92
2021/12/24 05:16:19;;;;;;;28.38;13.93;;;4.90;99.90;;;;;;5032212;28;20025;-91
2021/12/24 05:21:33;;;;;;;25.05;12.38;;;4.90;99.90;;;;;;5050419;28;20120;-92
2021/12/24 05:24:05;;;;;;;28.30;13.77;;;4.90;99.90;;;;;;5032624;28;20068;-91
2021/12/24 05:26:32;;;;;;;29.95;13.55;;;4.90;99.90;;;;;;5054442;28;20113;-92
2021/12/24 05:28:59;;;;;;;29.20;13.90;;;4.90;99.90;;;;;;5037874;28;20025;-90
2021/12/24 05:31:25;;;;;;;32.92;14.90;;;5.00;99.90;;;;;;5052765;28;20044;-91
2021/12/24 05:33:51;;;;;;;27.38;13.13;;;4.90;99.90;;;;;;5039819;28;20029;-92
2021/12/24 05:36:18;;;;;;;23.70;12.85;;;4.90;99.90;;;;;;5047420;28;20032;-90
2021/12/24 05:38:46;;;;;;;22.77;12.85;;;4.90;99.90;;;;;;5047446;28;20112;-93
2021/12/24 05:41:12;;;;;;;30.60;14.38;;;4.90;99.90;;;;;;5051210;28;20055;-90
2021/12/24 05:43:38;;;;;;;23.42;11.82;;;4.90;99.90;;;;;;5052875;28;20440;-91
2021/12/24 05:46:04;;;;;;;25.85;12.90;;;4.90;99.90;;;;;;5043996;28;20040;-93
2021/12/24 05:48:33;;;;;;;25.63;12.95;;;4.80;99.90;;;;;;5045599;28;20021;-93
2021/12/24 05:50:58;;;;;;;20.25;10.57;;;4.80;99.90;;;;;;5043324;28;20025;-92
2021/12/24 05:53:25;;;;;;;20.23;10.38;;;4.80;99.90;;;;;;5046350;28;20051;-93
2021/12/24 05:55:51;;;;;;;20.13;11.02;;;4.80;99.90;;;;;;5043190;28;20416;-93
2021/12/24 05:58:19;;;;;;;19.92;10.32;;;4.80;99.90;;;;;;5041149;28;20032;-92
2021/12/24 06:00:46;;;;;;;17.45;8.98;;;4.80;99.90;;;;;;5039757;28;20036;-92
2021/12/24 06:03:12;;;;;;;19.17;9.57;;;4.70;99.90;;;;;;5044300;28;20036;-93
2021/12/24 06:05:38;;;;;;;18.08;9.27;;;4.80;99.90;;;;;;5047259;28;20037;-92
2021/12/24 06:08:05;;;;;;;19.35;9.25;;;4.80;99.90;;;;;;5042450;28;20037;-92
2021/12/24 06:10:39;;;;;;;17.05;9.00;;;4.70;99.90;;;;;;5052707;28;20031;-93
2021/12/24 06:13:05;;;;;;;16.05;8.25;;;4.70;99.90;;;;;;5040814;28;20044;-92
2021/12/24 06:15:41;;;;;;;16.25;8.20;;;4.70;99.90;;;;;;5035831;28;20044;-93
2021/12/24 06:18:18;;;;;;;13.40;6.80;;;4.70;99.90;;;;;;5032808;28;20501;-93
2021/12/24 06:20:43;;;;;;;14.30;7.30;;;4.60;99.90;;;;;;5040783;28;20029;-93
2021/12/24 06:23:09;;;;;;;12.23;6.00;;;4.60;99.90;;;;;;5039614;28;20048;-93
2021/12/24 06:25:36;;;;;;;9.68;5.30;;;4.50;99.90;;;;;;5036322;28;20538;-92
2021/12/24 06:28:02;;;;;;;11.73;6.20;;;4.50;99.90;;;;;;5041413;28;20033;-93
2021/12/24 06:30:29;;;;;;;12.15;5.20;;;4.50;99.90;;;;;;5041448;28;20005;-93
2021/12/24 06:32:56;;;;;;;11.20;5.10;;;4.40;99.90;;;;;;5050285;28;20045;-93
2021/12/24 06:35:24;;;;;;;10.65;5.35;;;4.40;99.90;;;;;;5036264;28;20115;-92
2021/12/24 06:37:50;;;;;;;11.48;5.22;;;4.40;99.90;;;;;;5037636;28;20358;-92
2021/12/24 06:40:16;;;;;;;10.07;4.80;;;4.30;99.90;;;;;;5034587;28;20037;-93
2021/12/24 06:42:43;;;;;;;9.70;4.80;;;4.30;99.90;;;;;;5037280;28;20021;-93
2021/12/24 06:45:09;;;;;;;10.82;4.38;;;4.20;99.90;;;;;;5040518;28;20029;-92
2021/12/24 06:47:35;;;;;;;9.65;4.45;;;4.10;99.90;;;;;;5039428;28;20017;-93
2021/12/24 06:50:01;;;;;;;10.10;4.90;;;4.10;99.90;;;;;;5073183;28;20037;-92
2021/12/24 06:52:26;;;;;;;9.55;5.07;;;4.00;99.90;;;;;;5031463;28;20044;-92
2021/12/24 06:54:53;;;;;;;10.35;5.55;;;4.00;99.90;;;;;;5036853;28;20020;-92
2021/12/24 06:57:19;;;;;;;7.80;4.55;;;4.00;99.90;;;;;;5054112;28;20100;-92
2021/12/24 06:59:47;;;;;;;12.40;5.38;;;4.00;99.90;;;;;;5032791;28;20061;-92
2021/12/24 07:02:14;;;;;;;8.25;4.85;;;4.00;99.90;;;;;;5034330;28;20025;-94
2021/12/24 07:04:40;;;;;;;11.20;5.68;;;3.90;99.90;;;;;;5032747;28;20029;-92
2021/12/24 07:07:05;;;;;;;13.35;5.95;;;3.90;99.90;;;;;;5062465;28;20025;-92
2021/12/24 07:09:31;;;;;;;9.82;5.80;;;3.90;99.90;;;;;;5039242;28;20036;-93
2021/12/24 07:11:57;;;;;;;12.98;6.32;;;3.80;99.90;;;;;;5036798;28;20029;-92
2021/12/24 07:14:23;;;;;;;9.95;5.75;;;3.80;99.90;;;;;;5048191;28;20032;-92
2021/12/24 07:16:51;;;;;;;9.90;5.85;;;3.80;99.90;;;;;;5041913;28;20033;-92
2021/12/24 07:19:20;;;;;;;11.25;5.95;;;3.70;99.90;;;;;;5033903;28;20036;-93
2021/12/24 07:21:46;;;;;;;10.95;5.70;;;3.60;99.90;;;;;;5032935;28;20071;-92
2021/12/24 07:24:12;;;;;;;12.70;5.90;;;3.60;99.90;;;;;;5032374;28;20032;-93
2021/12/24 07:26:37;;;;;;;12.50;6.28;;;3.70;99.90;;;;;;5036642;28;20027;-93
2021/12/24 07:29:04;;;;;;;12.15;5.95;;;3.60;99.90;;;;;;5033533;28;20546;-93
2021/12/24 07:31:32;;;;;;;12.65;6.18;;;3.60;99.90;;;;;;5032360;28;20085;-92
2021/12/24 07:33:59;;;;;;;11.15;6.68;;;3.50;99.90;;;;;;5031458;28;20108;-93
2021/12/24 07:36:24;;;;;;;11.82;6.32;;;3.50;99.90;;;;;;5034963;28;20061;-95
2021/12/24 07:38:50;;;;;;;15.23;6.75;;;3.40;99.90;;;;;;5034906;28;20050;-93
2021/12/24 07:41:19;;;;;;;11.57;6.32;;;3.40;99.90;;;;;;5033054;28;20394;-92
2021/12/24 07:43:45;;;;;;;14.50;7.20;;;3.30;99.90;;;;;;5038276;28;20398;-92
2021/12/24 07:46:11;;;;;;;13.27;6.22;;;3.40;99.90;;;;;;5039865;28;20040;-92
2021/12/24 07:48:44;;;;;;;12.40;6.40;;;3.40;99.90;;;;;;5047712;28;20028;-93
2021/12/24 07:54:00;;;;;;;9.85;6.35;;;3.40;99.90;;;;;;5058011;28;20063;-90
2021/12/24 07:56:31;;;;;;;11.82;5.82;;;3.30;99.90;;;;;;5047496;28;20062;-91
2021/12/24 07:58:58;;;;;;;10.65;5.75;;;3.30;99.90;;;;;;5015253;28;20073;-93
2021/12/24 08:01:26;;;;;;;11.18;5.13;;;3.20;99.90;;;;;;5018684;28;20034;-92
2021/12/24 08:03:56;;;;;;;14.57;5.40;;;3.30;99.90;;;;;;5022121;28;20024;-93
2021/12/24 08:06:24;;;;;;;11.68;5.85;;;3.20;99.90;;;;;;5024512;28;20029;-94
2021/12/24 08:08:55;;;;;;;9.60;5.03;;;3.20;99.90;;;;;;5045784;28;20037;-93
2021/12/24 08:11:23;;;;;;;13.13;6.15;;;3.20;99.90;;;;;;5027173;28;20065;-93
2021/12/24 08:13:52;;;;;;;11.73;6.15;;;3.20;99.90;;;;;;5022101;28;20025;-93
2021/12/24 08:16:21;;;;;;;10.80;5.75;;;3.20;99.90;;;;;;5029327;28;20130;-93
2021/12/24 08:18:57;;;;;;;11.43;5.55;;;3.20;99.90;;;;;;5022163;28;20025;-93
2021/12/24 08:21:23;;;;;;;11.88;6.50;;;3.20;99.90;;;;;;5025396;28;20041;-93
2021/12/24 08:23:52;;;;;;;9.18;5.35;;;3.20;99.90;;;;;;5020015;28;20034;-93
2021/12/24 08:26:21;;;;;;;12.18;5.38;;;3.20;99.90;;;;;;5024539;28;20029;-92
2021/12/24 08:28:49;;;;;;;12.65;5.43;;;3.30;99.90;;;;;;5021841;28;20032;-92
2021/12/24 08:31:25;;;;;;;11.82;5.93;;;3.30;99.90;;;;;;5026452;28;20212;-92
2021/12/24 08:33:54;;;;;;;11.45;5.47;;;3.30;99.90;;;;;;5020039;28;20079;-94
2021/12/24 08:36:26;;;;;;;11.10;5.72;;;3.30;99.90;;;;;;5020820;28;20044;-94
2021/12/24 08:38:52;;;;;;;11.43;6.35;;;3.30;99.90;;;;;;5021921;28;20048;-94
2021/12/24 08:41:18;;;;;;;10.93;6.25;;;3.20;99.90;;;;;;5020319;28;20029;-94
2021/12/24 08:43:44;;;;;;;12.00;5.95;;;3.20;99.90;;;;;;5021295;28;20057;-94
2021/12/24 08:46:09;;;;;;;12.30;5.97;;;3.10;99.90;;;;;;5016067;28;20022;-90
2021/12/24 08:48:39;;;;;;;12.60;7.07;;;3.10;99.90;;;;;;5034744;28;20029;-93
2021/12/24 08:51:07;;;;;;;12.57;6.70;;;3.20;99.90;;;;;;5021092;28;20026;-95
2021/12/24 08:53:35;;;;;;;9.25;5.75;;;3.20;99.90;;;;;;5016142;28;20099;-93
2021/12/24 08:56:02;;;;;;;11.50;5.75;;;3.20;99.90;;;;;;5037153;28;20042;-94
2021/12/24 08:58:28;;;;;;;9.00;5.70;;;3.10;99.90;;;;;;5025270;28;20013;-95
2021/12/24 09:00:54;;;;;;;9.52;5.40;;;3.10;99.90;;;;;;5028937;28;20069;-94
2021/12/24 09:03:22;;;;;;;12.60;6.10;;;3.10;99.90;;;;;;5049946;28;20032;-95
2021/12/24 09:05:48;;;;;;;11.68;6.47;;;3.10;99.90;;;;;;5029161;28;20026;-95
2021/12/24 09:08:14;;;;;;;9.98;5.95;;;3.10;99.90;;;;;;5029741;28;20017;-94
2021/12/24 09:10:40;;;;;;;11.07;6.75;;;3.10;99.90;;;;;;5030642;28;20025;-93
2021/12/24 09:13:06;;;;;;;13.10;6.40;;;3.10;99.90;;;;;;5026542;28;20038;-94
2021/12/24 09:15:32;;;;;;;12.48;6.28;;;3.10;99.90;;;;;;5029948;28;20266;-95
2021/12/24 09:18:01;;;;;;;10.82;6.07;;;3.10;99.90;;;;;;5029909;28;20029;-94
2021/12/24 09:20:36;;;;;;;11.10;6.10;;;3.10;99.90;;;;;;5028803;28;20045;-94
2021/12/24 09:23:06;;;;;;;13.27;7.13;;;3.10;99.90;;;;;;5028757;23;20179;-71
2021/12/24 09:25:33;;;;;;;10.93;6.70;;;3.10;99.90;;;;;;5028724;28;20017;-70
2021/12/24 09:27:59;;;;;;;13.38;8.10;;;3.00;99.90;;;;;;5030436;28;20022;-73
2021/12/24 09:30:26;;;;;;;13.43;7.40;;;3.00;99.90;;;;;;5029995;28;20022;-72
2021/12/24 09:32:52;;;;;;;10.90;6.38;;;3.00;99.90;;;;;;5032230;28;20021;-71
2021/12/24 09:35:19;;;;;;;12.32;6.82;;;3.00;99.90;;;;;;5037839;28;20033;-71
2021/12/24 09:37:45;;;;;;;14.13;7.70;;;3.00;99.90;;;;;;5029078;28;20083;-73
2021/12/24 09:40:13;;;;;;;12.13;6.15;;;3.00;99.90;;;;;;5033819;28;20025;-71
2021/12/24 09:42:39;;;;;;;14.85;7.90;;;3.00;99.90;;;;;;5028707;28;20095;-71
2021/12/24 09:45:07;;;;;;;15.43;8.07;;;2.90;99.90;;;;;;5030068;28;20459;-72
2021/12/24 09:47:33;;;;;;;11.98;6.70;;;2.90;99.90;;;;;;5029466;28;20487;-70
2021/12/24 09:49:58;;;;;;;12.57;6.72;;;2.90;99.90;;;;;;5025320;28;20044;-70
2021/12/24 09:52:25;;;;;;;13.38;7.70;;;2.80;99.90;;;;;;5022582;28;20030;-73
2021/12/24 09:54:52;;;;;;;13.20;7.25;;;2.80;99.90;;;;;;5024703;28;20483;-73
2021/12/24 09:57:18;;;;;;;10.90;6.22;;;2.80;99.90;;;;;;5023891;28;20038;-73
2021/12/24 09:59:44;;;;;;;12.20;6.65;;;2.70;99.90;;;;;;5023951;28;20029;-73
2021/12/24 10:02:16;;;;;;;10.63;6.35;;;2.70;99.90;;;;;;5020317;28;20070;-72
2021/12/24 10:04:43;;;;;;;11.60;6.60;;;2.70;99.90;;;;;;5023099;28;20057;-72
2021/12/24 10:07:11;;;;;;;9.18;5.90;;;2.70;99.90;;;;;;5027461;28;20017;-72
2021/12/24 10:09:40;;;;;;;10.90;6.35;;;2.70;99.90;;;;;;5021188;28;20491;-72
2021/12/24 10:12:08;;;;;;;12.35;6.93;;;2.70;99.90;;;;;;5025884;28;20487;-73
2021/12/24 10:14:36;;;;;;;11.82;6.45;;;2.60;99.90;;;;;;5027885;28;20541;-72
2021/12/24 10:17:04;;;;;;;12.90;6.97;;;2.60;99.90;;;;;;5029443;28;20065;-72
2021/12/24 10:19:46;;;;;;;11.77;6.80;;;2.60;99.90;;;;;;5032052;28;20022;-72
2021/12/24 10:22:12;;;;;;;11.57;6.65;;;2.60;99.90;;;;;;5032839;28;20037;-72
2021/12/24 10:24:38;;;;;;;13.60;7.18;;;2.60;99.90;;;;;;5052598;23;20064;-72
2021/12/24 10:27:04;;;;;;;13.95;7.78;;;2.60;99.90;;;;;;5042069;28;20115;-80
2021/12/24 10:29:30;;;;;;;12.65;7.22;;;2.60;99.90;;;;;;5049667;28;20035;-73
2021/12/24 10:32:11;;;;;;;11.82;6.80;;;2.60;99.90;;;;;;5049316;28;20041;-73
2021/12/24 10:34:39;;;;;;;15.20;7.38;;;2.60;99.90;;;;;;5039027;28;20095;-75
2021/12/24 10:37:08;;;;;;;12.70;7.10;;;2.70;99.90;;;;;;5023328;28;20076;-74
2021/12/24 10:39:40;;;;;;;12.60;6.90;;;2.70;99.90;;;;;;5032932;28;20068;-75
2021/12/24 10:42:13;;;;;;;12.73;7.15;;;2.60;99.90;;;;;;5034590;28;20032;-74
2021/12/24 10:44:40;;;;;;;12.50;6.72;;;2.60;99.90;;;;;;5038514;28;20032;-74
2021/12/24 10:47:25;;;;;;;13.05;7.50;;;2.50;99.90;;;;;;5032832;28;20102;-75
2021/12/24 10:55:52;;;;;;;16.73;9.27;;;2.40;99.90;;;;;;5037298;28;20529;-74
2021/12/24 10:58:22;;;;;;;14.50;8.55;;;2.40;99.90;;;;;;5036593;28;20529;-74
2021/12/24 11:00:59;;;;;;;13.23;8.80;;;2.40;99.90;;;;;;5027106;28;20395;-75
2021/12/24 11:03:27;;;;;;;16.48;8.13;;;2.40;99.90;;;;;;5028423;28;20079;-74
2021/12/24 11:06:06;;;;;;;13.65;7.95;;;2.40;99.90;;;;;;5032854;28;20028;-72
2021/12/24 11:08:32;;;;;;;12.93;7.82;;;2.50;99.90;;;;;;5027970;28;20022;-72
2021/12/24 11:11:06;;;;;;;14.82;8.18;;;2.50;99.90;;;;;;5026035;28;20100;-73
2021/12/24 11:13:39;;;;;;;12.80;7.70;;;2.40;99.90;;;;;;5022139;28;20033;-73
2021/12/24 11:16:07;;;;;;;13.45;7.95;;;2.50;99.90;;;;;;5031023;28;20033;-72
2021/12/24 11:18:38;;;;;;;15.27;8.60;;;2.50;99.90;;;;;;5036864;28;20533;-72
2021/12/24 11:21:22;;;;;;;15.80;7.93;;;2.50;99.90;;;;;;5036181;28;20041;-72
2021/12/24 11:23:48;;;;;;;13.30;7.45;;;2.50;99.90;;;;;;5032863;28;20034;-73
2021/12/24 11:26:21;;;;;;;11.25;7.13;;;2.60;99.90;;;;;;5034545;28;20127;-76
2021/12/24 11:28:48;;;;;;;12.77;7.55;;;2.60;99.90;;;;;;5034429;28;20096;-72
2021/12/24 11:31:19;;;;;;;12.07;7.70;;;2.60;99.90;;;;;;5029787;28;20040;-72
2021/12/24 11:33:46;;;;;;;11.85;7.53;;;2.50;99.90;;;;;;5034912;28;20040;-72
2021/12/24 11:36:16;;;;;;;13.82;8.80;;;2.50;99.90;;;;;;5042984;28;20345;-72
2021/12/24 11:38:47;;;;;;;14.57;8.10;;;2.50;99.90;;;;;;5032002;28;20483;-73
2021/12/24 11:41:15;;;;;;;13.18;8.40;;;2.50;99.90;;;;;;5029029;28;20033;-74
2021/12/24 11:43:45;;;;;;;13.07;7.85;;;2.60;99.90;;;;;;5036473;28;20398;-73
2021/12/24 11:46:15;;;;;;;17.27;9.32;;;2.60;99.90;;;;;;5026901;28;20044;-73
2021/12/24 11:48:42;;;;;;;17.75;10.30;;;2.60;99.90;;;;;;5022360;28;20022;-74
2021/12/24 11:51:21;;;;;;;16.65;9.35;;;2.60;99.90;;;;;;5028367;28;20036;-73
2021/12/24 11:53:48;;;;;;;16.25;9.13;;;2.70;99.90;;;;;;5029254;28;20033;-73
2021/12/24 11:56:17;;;;;;;19.00;9.70;;;2.70;99.90;;;;;;5039000;28;20061;-74
2021/12/24 11:58:47;;;;;;;22.67;10.82;;;2.70;99.90;;;;;;5028340;28;20067;-75
2021/12/24 12:01:17;;;;;;;23.45;11.98;;;2.70;99.90;;;;;;5033723;28;20049;-74
2021/12/24 12:03:49;;;;;;;21.98;11.20;;;2.60;99.90;;;;;;5039082;28;20029;-74
2021/12/24 12:06:17;;;;;;;23.92;11.48;;;2.60;99.90;;;;;;5039825;28;20072;-74
2021/12/24 12:08:45;;;;;;;25.70;12.68;;;2.50;99.90;;;;;;5035978;28;20037;-74
2021/12/24 12:11:21;;;;;;;22.83;11.35;;;2.50;99.90;;;;;;5031129;28;20059;-73
2021/12/24 12:13:48;;;;;;;23.23;11.88;;;2.50;99.90;;;;;;5033727;28;20113;-73
2021/12/24 12:16:17;;;;;;;28.55;13.73;;;2.50;99.90;;;;;;5033444;28;20033;-74
2021/12/24 12:19:00;;;;;;;27.35;12.75;;;2.40;99.90;;;;;;5032284;28;20033;-73
2021/12/24 12:21:38;;;;;;;26.15;13.82;;;2.40;99.90;;;;;;5030417;28;20022;-73
2021/12/24 12:26:44;;;;;;;24.90;12.65;;;2.50;99.90;;;;;;5031313;28;20039;-73
2021/12/24 12:29:30;;;;;;;25.23;12.65;;;2.50;99.90;;;;;;5031500;28;20025;-71
2021/12/24 12:32:16;;;;;;;28.00;14.85;;;2.50;99.90;;;;;;5023206;28;20026;-75
2021/12/24 12:34:48;;;;;;;26.45;12.63;;;2.50;99.90;;;;;;5031055;28;20059;-74
2021/12/24 12:37:18;;;;;;;;;;;2.50;99.90;;;;;;5023170;28;20483;-72
2021/12/24 12:39:46;;;;;;;27.70;13.65;;;2.50;99.90;;;;;;5036792;28;20309;-74
2021/12/24 12:42:15;;;;;;;26.02;13.15;;;2.90;99.90;;;;;;5045522;28;20075;-74
2021/12/24 12:44:46;;;;;;;26.85;14.02;;;3.00;99.90;;;;;;5028110;28;20395;-73
2021/12/24 12:47:24;;;;;;;26.60;13.23;;;3.00;99.90;;;;;;5019969;28;20045;-74
2021/12/24 12:50:10;;;;;;;22.30;12.07;;;2.90;99.90;;;;;;5035684;28;20109;-74
2021/12/24 12:52:36;;;;;;;22.77;12.43;;;2.80;99.90;;;;;;5026349;28;20029;-75
2021/12/24 12:55:03;;;;;;;26.10;14.07;;;2.70;99.90;;;;;;5033437;28;20040;-73
2021/12/24 12:57:32;;;;;;;28.25;14.32;;;2.60;99.90;;;;;;5031835;28;20502;-74
2021/12/24 13:00:20;;;;;;;26.90;14.27;;;2.60;99.90;;;;;;5035380;28;20030;-74
2021/12/24 13:03:07;;;;;;;29.80;15.15;;;2.60;99.90;;;;;;5025292;28;20075;-74
2021/12/24 13:05:53;;;;;;;28.20;13.70;;;2.50;99.90;;;;;;5050179;28;20958;-74
2021/12/24 13:08:21;;;;;;;30.20;14.75;;;2.50;99.90;;;;;;5044776;28;20076;-74
2021/12/24 13:10:59;;;;;;;42.97;17.83;;;2.50;99.90;;;;;;5034474;28;20083;-74
2021/12/24 13:13:26;;;;;;;41.55;18.20;;;2.80;99.90;;;;;;5035268;28;20030;-74
2021/12/24 13:15:52;;;;;;;32.05;16.88;;;3.30;99.90;;;;;;5036112;28;20032;-74
2021/12/24 13:18:30;;;;;;;26.10;14.85;;;3.60;99.90;;;;;;5037717;28;20549;-73
2021/12/24 13:22:27;;;;;;;54.17;21.50;;;3.60;99.90;;;;;;5039276;28;20061;-73
2021/12/24 13:23:47;;;;;;;27.92;15.05;;;3.40;99.90;;;;;;5032643;28;20384;-75
2021/12/24 13:26:18;;;;;;;24.63;13.80;;;3.10;99.90;;;;;;5032171;28;20581;-73
2021/12/24 13:28:59;;;;;;;24.90;14.05;;;2.90;99.90;;;;;;5036324;28;20033;-73
2021/12/24 13:31:26;;;;;;;26.85;13.88;;;2.80;99.90;;;;;;5036385;28;20078;-72
2021/12/24 13:33:52;;;;;;;24.80;14.82;;;2.90;99.90;;;;;;5034078;28;20025;-74
2021/12/24 13:36:25;;;;;;;26.55;13.93;;;2.80;99.90;;;;;;5034963;28;20518;-74
2021/12/24 13:38:51;;;;;;;30.08;15.43;;;2.70;99.90;;;;;;5020530;28;20033;-72
2021/12/24 13:41:17;;;;;;;28.67;14.35;;;2.70;99.90;;;;;;5036989;28;20022;-74
2021/12/24 13:43:42;;;;;;;26.50;14.43;;;2.70;99.90;;;;;;5038073;28;20032;-74
2021/12/24 13:46:10;;;;;;;27.98;13.93;;;2.70;99.90;;;;;;5035555;28;20119;-75
2021/12/24 13:48:51;;;;;;;30.45;15.57;;;2.60;99.90;;;;;;5037833;28;20110;-75
2021/12/24 13:56:48;;;;;;;31.40;15.05;;;2.50;99.90;;;;;;5043148;28;20032;-74
2021/12/24 13:59:20;;;;;;;29.88;14.68;;;2.50;99.90;;;;;;5042371;28;20025;-75
2021/12/24 14:01:46;;;;;;;26.92;14.18;;;2.50;99.90;;;;;;5039441;28;20029;-73
2021/12/24 14:04:16;;;;;;;35.55;15.93;;;2.50;99.90;;;;;;5043457;28;20360;-74
2021/12/24 14:06:44;;;;;;;35.25;16.25;;;2.50;99.90;;;;;;5044457;28;20107;-74
2021/12/24 14:09:14;;;;;;;35.40;16.88;;;2.50;99.90;;;;;;5043824;28;20048;-74
2021/12/24 14:11:41;;;;;;;35.70;16.10;;;2.50;99.90;;;;;;5040078;28;20399;-74
2021/12/24 14:14:22;;;;;;;34.67;16.15;;;2.40;99.90;;;;;;5038052;28;20479;-74
2021/12/24 14:19:47;;;;;;;35.70;14.98;;;2.40;99.90;;;;;;5038472;28;20033;-73
2021/12/24 14:22:15;;;;;;;31.45;15.70;;;2.40;99.90;;;;;;5043841;28;20068;-74
2021/12/24 14:25:01;;;;;;;38.05;16.88;;;2.40;99.90;;;;;;5037537;28;20056;-74
2021/12/24 14:27:29;;;;;;;34.08;16.33;;;2.40;99.90;;;;;;5039140;28;20096;-74
2021/12/24 14:30:10;;;;;;;35.60;16.05;;;2.40;99.90;;;;;;5038744;28;20451;-75
2021/12/24 14:32:44;;;;;;;38.95;16.38;;;2.40;99.90;;;;;;5036898;28;20493;-73
2021/12/24 14:35:27;;;;;;;37.78;16.52;;;2.30;99.90;;;;;;5037297;28;20072;-74
2021/12/24 14:37:53;;;;;;;41.47;17.17;;;2.40;99.90;;;;;;5037277;28;20064;-74
2021/12/24 14:40:20;;;;;;;40.00;17.58;;;2.40;99.90;;;;;;5038589;28;20048;-73
2021/12/24 14:42:47;;;;;;;36.88;15.65;;;2.30;99.90;;;;;;5037856;28;20061;-73